Hutchinson, Kansas
Current Conditions -  °F | °C
As of 9:52 PM on Tuesday 21 Oct 2014 (Local Time) from KHUT Reporting Station
Clear Clear  
Wind Chill: 19°   Ceiling: Unl
Heat Index: 19°   Visibility: 10mi
Dew Point: 14°   Wind: 9mph
Humidity: 75%   Direction: 140°SE
Pressure: 30.03"   Gusts: NA
Location:  38.06°N, 97.93°W
Report Text: KHUT 220252Z 14008KT 10SM CLR 19/14 A3003 RMK AO2 SLP155 T01890144 51012
Loading
Personal Weather Stations






























Interactive Weather Map
Tropical Storm Tracking
New forecast layout! Learn more

10-Day Weather Forecast

Advertisements
Track Severe Weather on mobile